createdAt,value
2017-03-31T00:01:16.491Z,39.57
2017-03-31T00:02:13.517Z,39.49
2017-03-31T00:03:13.081Z,39.29
2017-03-31T00:04:13.022Z,39.59
2017-03-31T00:05:12.970Z,39.59
2017-03-31T00:06:12.896Z,39.57
2017-03-31T00:07:12.833Z,39.69
2017-03-31T00:08:12.771Z,39.69
2017-03-31T00:09:12.709Z,39.11
2017-03-31T00:10:12.654Z,39.11
2017-03-31T00:11:12.586Z,39.59
2017-03-31T00:12:12.525Z,39.29
2017-03-31T00:13:12.462Z,39.09
2017-03-31T00:14:12.401Z,39.29
2017-03-31T00:15:12.340Z,38.91
2017-03-31T00:16:12.427Z,39.2
2017-03-31T00:17:12.216Z,39.01
2017-03-31T00:18:11.846Z,38.81
2017-03-31T00:19:12.099Z,39.01
2017-03-31T00:20:12.035Z,38.91
2017-03-31T00:21:11.970Z,39.2
2017-03-31T00:22:11.908Z,38.7
2017-03-31T00:23:11.845Z,38.91
2017-03-31T00:24:11.788Z,38.99
2017-03-31T00:25:11.721Z,38.91
2017-03-31T00:26:11.661Z,38.71
2017-03-31T00:27:11.597Z,39.11
2017-03-31T00:28:11.226Z,39.29
2017-03-31T00:29:11.475Z,38.91
2017-03-31T00:30:11.413Z,38.91
2017-03-31T00:31:11.351Z,38.71
2017-03-31T00:32:11.289Z,38.81
2017-03-31T00:33:11.232Z,38.89
2017-03-31T00:34:11.165Z,39.11
2017-03-31T00:35:11.103Z,39.11
2017-03-31T00:36:11.046Z,39.29
2017-03-31T00:37:10.979Z,39.29
2017-03-31T00:38:10.917Z,38.99
2017-03-31T00:39:10.919Z,39.09
2017-03-31T00:40:10.797Z,39.29
2017-03-31T00:41:10.732Z,38.91
2017-03-31T00:42:10.671Z,38.99
2017-03-31T00:43:10.611Z,38.99
2017-03-31T00:44:10.551Z,39.11
2017-03-31T00:45:10.487Z,38.81
2017-03-31T00:46:10.426Z,38.7
2017-03-31T00:47:10.363Z,38.89
2017-03-31T00:48:10.300Z,39.01
2017-03-31T00:49:10.255Z,38.89
2017-03-31T00:50:10.178Z,39.29
2017-03-31T00:51:10.116Z,39.11
2017-03-31T00:52:10.053Z,39.2
2017-03-31T00:53:09.993Z,38.89
2017-03-31T00:54:09.929Z,39.29
2017-03-31T00:55:09.563Z,39.2
2017-03-31T00:56:09.810Z,38.89
2017-03-31T00:57:09.744Z,38.7
2017-03-31T00:58:09.682Z,39.18
2017-03-31T00:59:09.651Z,38.91
2017-03-31T01:00:09.559Z,38.99
2017-03-31T01:01:18.208Z,38.99
2017-03-31T01:02:09.436Z,39.11
2017-03-31T01:03:09.372Z,39.2
2017-03-31T01:04:09.317Z,39.01
2017-03-31T01:05:09.252Z,39.11
2017-03-31T01:06:09.187Z,38.51
2017-03-31T01:07:09.127Z,39.29
2017-03-31T01:08:09.065Z,38.43
2017-03-31T01:09:09.002Z,38.7
2017-03-31T01:10:08.630Z,38.79
2017-03-31T01:11:08.882Z,38.51
2017-03-31T01:12:08.818Z,38.89
2017-03-31T01:13:08.756Z,38.89
2017-03-31T01:14:08.695Z,39.29
2017-03-31T01:15:08.735Z,39.29
2017-03-31T01:16:08.568Z,38.43
2017-03-31T01:17:08.538Z,38.89
2017-03-31T01:18:08.445Z,38.53
2017-03-31T01:19:08.385Z,39.29
2017-03-31T01:20:08.322Z,39.28
2017-03-31T01:21:08.260Z,38.7
2017-03-31T01:22:08.235Z,38.41
2017-03-31T01:23:08.137Z,39.29
2017-03-31T01:24:08.075Z,38.62
2017-03-31T01:25:08.015Z,39.2
2017-03-31T01:26:07.955Z,38.62
2017-03-31T01:27:07.890Z,38.71
2017-03-31T01:28:07.831Z,38.71
2017-03-31T01:29:07.766Z,38.43
2017-03-31T01:30:07.709Z,38.53
2017-03-31T01:31:07.644Z,38.6
2017-03-31T01:32:07.584Z,38.89
2017-03-31T01:33:07.519Z,38.71
2017-03-31T01:34:07.458Z,38.6
2017-03-31T01:35:07.396Z,38.31
2017-03-31T01:36:07.335Z,38.31
2017-03-31T01:37:07.273Z,38.51
2017-03-31T01:38:07.209Z,38.53
2017-03-31T01:39:07.149Z,38.41
2017-03-31T01:40:07.087Z,38.53
2017-03-31T01:41:07.026Z,38.51
2017-03-31T01:42:06.965Z,38.62
2017-03-31T01:43:06.901Z,38.51
2017-03-31T01:44:06.837Z,38.7
2017-03-31T01:45:06.779Z,38.51
2017-03-31T01:46:06.715Z,38.51
2017-03-31T01:47:06.655Z,38.51
2017-03-31T01:48:06.595Z,38.6
2017-03-31T01:49:06.530Z,38.89
2017-03-31T01:50:06.467Z,38.33
2017-03-31T01:51:06.408Z,38.31
2017-03-31T01:52:06.347Z,38.6
2017-03-31T01:53:06.283Z,38.21
2017-03-31T01:54:06.229Z,38.51
2017-03-31T01:55:06.161Z,38.7
2017-03-31T01:56:06.100Z,38.51
2017-03-31T01:57:06.155Z,38.41
2017-03-31T01:58:05.974Z,38.41
2017-03-31T01:59:05.925Z,38.62
2017-03-31T02:00:05.966Z,38.62
2017-03-31T02:01:05.790Z,38.41
2017-03-31T02:02:05.421Z,38.41
2017-03-31T02:03:05.675Z,38.43
2017-03-31T02:04:05.766Z,38.62
2017-03-31T02:05:05.350Z,38.89
2017-03-31T02:06:05.481Z,38.89
2017-03-31T02:07:05.421Z,38.7
2017-03-31T02:08:05.357Z,38.7
2017-03-31T02:09:05.295Z,38.53
2017-03-31T02:10:05.235Z,38.21
2017-03-31T02:11:05.172Z,38.51
2017-03-31T02:12:05.117Z,38.41
2017-03-31T02:13:05.058Z,38.51
2017-03-31T02:14:04.987Z,38.41
2017-03-31T02:15:04.936Z,38.33
2017-03-31T02:16:04.862Z,38.7
2017-03-31T02:17:04.808Z,38.51
2017-03-31T02:18:04.748Z,38.41
2017-03-31T02:19:04.391Z,38.51
2017-03-31T02:20:04.619Z,38.53
2017-03-31T02:21:04.554Z,38.51
2017-03-31T02:22:04.501Z,38.51
2017-03-31T02:23:04.122Z,38.12
2017-03-31T02:24:04.388Z,38.41
2017-03-31T02:25:04.317Z,38.43
2017-03-31T02:26:04.244Z,38.51
2017-03-31T02:27:04.184Z,38.51
2017-03-31T02:28:04.128Z,38.41
2017-03-31T02:29:04.068Z,38.31
2017-03-31T02:30:03.996Z,38.51
2017-03-31T02:31:03.946Z,38.51
2017-03-31T02:32:03.887Z,38.31
2017-03-31T02:33:03.829Z,38.41
2017-03-31T02:34:03.749Z,38.6
2017-03-31T02:35:03.687Z,38.53
2017-03-31T02:36:03.627Z,38.23
2017-03-31T02:37:03.564Z,38.21
2017-03-31T02:38:03.506Z,38.41
2017-03-31T02:39:03.440Z,38.23
2017-03-31T02:40:03.528Z,38.21
2017-03-31T02:41:03.315Z,38.51
2017-03-31T02:42:03.257Z,38.51
2017-03-31T02:43:03.272Z,38.31
2017-03-31T02:44:03.132Z,38.21
2017-03-31T02:45:03.067Z,38.02
2017-03-31T02:46:03.010Z,38.31
2017-03-31T02:47:02.946Z,38.31
2017-03-31T02:48:02.887Z,38.41
2017-03-31T02:49:02.821Z,38.31
2017-03-31T02:50:02.759Z,38.31
2017-03-31T02:51:02.697Z,38.31
2017-03-31T02:52:02.635Z,38.21
2017-03-31T02:53:02.579Z,38.43
2017-03-31T02:54:02.515Z,38.31
2017-03-31T02:55:02.453Z,38.41
2017-03-31T02:56:02.390Z,38.21
2017-03-31T02:57:02.327Z,38.41
2017-03-31T02:58:02.264Z,38.31
2017-03-31T02:59:02.203Z,38.33
2017-03-31T03:00:02.140Z,38.41
2017-03-31T03:01:01.771Z,38.41
2017-03-31T03:02:02.019Z,38.33
2017-03-31T03:03:01.956Z,38.41
2017-03-31T03:04:01.582Z,38.43
2017-03-31T03:05:01.955Z,38.21
2017-03-31T03:06:01.459Z,38.31
2017-03-31T03:07:01.397Z,38.43
2017-03-31T03:08:01.645Z,38.31
2017-03-31T03:09:01.274Z,38.23
2017-03-31T03:10:01.523Z,37.95
2017-03-31T03:11:01.461Z,38.12
2017-03-31T03:12:01.400Z,38.41
2017-03-31T03:13:01.339Z,38.14
2017-03-31T03:14:01.275Z,38.41
2017-03-31T03:15:01.215Z,38.21
2017-03-31T03:16:01.151Z,38.23
2017-03-31T03:17:01.093Z,38.41
2017-03-31T03:18:01.026Z,37.73
2017-03-31T03:19:00.968Z,38.51
2017-03-31T03:20:00.904Z,38.43
2017-03-31T03:21:00.845Z,38.23
2017-03-31T03:22:00.781Z,38.41
2017-03-31T03:23:00.719Z,38.31
2017-03-31T03:24:00.658Z,38.02
2017-03-31T03:25:00.595Z,38.31
2017-03-31T03:26:00.535Z,38.31
2017-03-31T03:27:00.473Z,38.6
2017-03-31T03:28:00.097Z,38.31
2017-03-31T03:29:00.347Z,38.33
2017-03-31T03:30:00.285Z,38.31
2017-03-31T03:31:00.223Z,38.31
2017-03-31T03:32:00.161Z,38.21
2017-03-31T03:33:00.100Z,38.21
2017-03-31T03:34:00.037Z,38.02
2017-03-31T03:34:59.981Z,38.21
2017-03-31T03:35:59.603Z,38.02
2017-03-31T03:36:59.853Z,38.02
2017-03-31T03:37:59.791Z,38.02
2017-03-31T03:38:59.728Z,38.21
2017-03-31T03:39:59.668Z,38.02
2017-03-31T03:40:59.604Z,38.12
2017-03-31T03:41:59.548Z,38.12
2017-03-31T03:42:59.483Z,38.02
2017-03-31T03:43:59.423Z,38.02
2017-03-31T03:44:59.361Z,38.14
2017-03-31T03:45:59.314Z,38.12
2017-03-31T03:46:59.235Z,38.12
2017-03-31T03:47:58.874Z,38.21
2017-03-31T03:48:59.111Z,38.12
2017-03-31T03:49:59.048Z,38.02
2017-03-31T03:50:58.681Z,37.83
2017-03-31T03:51:58.927Z,38.02
2017-03-31T03:52:58.873Z,37.93
2017-03-31T03:53:58.800Z,37.73
2017-03-31T03:54:58.745Z,37.93
2017-03-31T03:55:58.678Z,38.04
2017-03-31T03:56:58.623Z,38.02
2017-03-31T03:57:58.554Z,37.73
2017-03-31T03:58:58.503Z,37.54
2017-03-31T03:59:58.430Z,38.02
2017-03-31T04:00:58.370Z,37.63
2017-03-31T04:01:58.304Z,37.93
2017-03-31T04:02:58.245Z,38.12
2017-03-31T04:03:58.182Z,38.21
2017-03-31T04:04:58.210Z,38.02
2017-03-31T04:05:58.058Z,37.73
2017-03-31T04:06:57.690Z,37.83
2017-03-31T04:07:57.935Z,37.73
2017-03-31T04:08:57.872Z,37.63
2017-03-31T04:09:57.501Z,37.35
2017-03-31T04:10:57.439Z,37.45
2017-03-31T04:11:57.687Z,37.63
2017-03-31T04:12:57.625Z,37.83
2017-03-31T04:13:57.585Z,37.54
2017-03-31T04:14:57.501Z,37.63
2017-03-31T04:15:57.441Z,37.63
2017-03-31T04:16:57.377Z,37.35
2017-03-31T04:17:57.315Z,37.63
2017-03-31T04:18:57.303Z,37.54
2017-03-31T04:19:57.190Z,37.25
2017-03-31T04:20:57.129Z,37.35
2017-03-31T04:21:57.271Z,37.35
2017-03-31T04:22:57.008Z,37.54
2017-03-31T04:23:56.943Z,37.63
2017-03-31T04:24:56.882Z,37.45
2017-03-31T04:25:56.515Z,37.63
2017-03-31T04:26:56.758Z,37.45
2017-03-31T04:27:56.699Z,36.96
2017-03-31T04:28:56.327Z,37.15
2017-03-31T04:29:56.328Z,37.35
2017-03-31T04:30:56.511Z,37.25
2017-03-31T04:31:56.450Z,37.63
2017-03-31T04:32:56.386Z,37.25
2017-03-31T04:33:56.324Z,37.35
2017-03-31T04:34:56.262Z,37.54
2017-03-31T04:35:56.202Z,37.45
2017-03-31T04:36:56.149Z,37.35
2017-03-31T04:37:56.086Z,37.35
2017-03-31T04:38:56.031Z,37.54
2017-03-31T04:39:55.952Z,37.25
2017-03-31T04:40:55.893Z,37.45
2017-03-31T04:41:55.828Z,37.35
2017-03-31T04:42:55.857Z,37.25
2017-03-31T04:43:55.706Z,37.25
2017-03-31T04:44:55.646Z,37.45
2017-03-31T04:45:55.583Z,37.54
2017-03-31T04:46:55.523Z,37.54
2017-03-31T04:47:55.460Z,37.35
2017-03-31T04:48:55.395Z,37.25
2017-03-31T04:49:55.334Z,37.45
2017-03-31T04:50:55.274Z,37.54
2017-03-31T04:51:55.214Z,37.35
2017-03-31T04:52:55.161Z,37.25
2017-03-31T04:53:55.089Z,37.73
2017-03-31T04:54:55.026Z,37.25
2017-03-31T04:55:54.964Z,36.96
2017-03-31T04:56:54.904Z,37.06
2017-03-31T04:57:54.838Z,36.87
2017-03-31T04:58:54.776Z,36.96
2017-03-31T04:59:54.715Z,36.96
2017-03-31T05:00:54.655Z,37.06
2017-03-31T05:02:00.161Z,36.96
2017-03-31T05:02:54.531Z,37.25
2017-03-31T05:03:54.474Z,36.96
2017-03-31T05:04:54.405Z,37.06
2017-03-31T05:05:54.345Z,36.87
2017-03-31T05:06:54.283Z,37.06
2017-03-31T05:07:54.220Z,37.15
2017-03-31T05:08:54.158Z,37.25
2017-03-31T05:09:54.099Z,36.96
2017-03-31T05:10:54.035Z,37.06
2017-03-31T05:11:53.970Z,37.25
2017-03-31T05:12:53.909Z,37.15
2017-03-31T05:13:54.217Z,37.35
2017-03-31T05:14:53.785Z,37.25
2017-03-31T05:15:53.723Z,37.06
2017-03-31T05:16:53.663Z,37.15
2017-03-31T05:17:53.599Z,36.96
2017-03-31T05:18:53.538Z,36.96
2017-03-31T05:19:53.475Z,36.96
2017-03-31T05:20:53.414Z,36.87
2017-03-31T05:21:53.728Z,36.96
2017-03-31T05:22:53.290Z,37.15
2017-03-31T05:23:53.233Z,36.77
2017-03-31T05:24:53.168Z,36.87
2017-03-31T05:25:53.106Z,36.87
2017-03-31T05:26:53.042Z,36.96
2017-03-31T05:27:52.981Z,36.87
2017-03-31T05:28:52.916Z,37.06
2017-03-31T05:29:52.857Z,36.96
2017-03-31T05:30:52.795Z,37.06
2017-03-31T05:31:52.732Z,36.96
2017-03-31T05:32:53.039Z,36.67
2017-03-31T05:33:52.607Z,36.57
2017-03-31T05:34:52.919Z,36.67
2017-03-31T05:35:52.486Z,36.67
2017-03-31T05:36:52.425Z,36.67
2017-03-31T05:37:52.359Z,36.77
2017-03-31T05:38:52.299Z,36.67
2017-03-31T05:39:52.234Z,36.48
2017-03-31T05:40:52.173Z,36.48
2017-03-31T05:41:52.495Z,36.77
2017-03-31T05:42:51.739Z,36.29
2017-03-31T05:43:51.988Z,36.38
2017-03-31T05:44:51.925Z,36.48
2017-03-31T05:45:51.865Z,36.29
2017-03-31T05:46:51.804Z,36.38
2017-03-31T05:47:51.432Z,36.38
2017-03-31T05:48:51.677Z,36.48
2017-03-31T05:49:51.306Z,36.29
2017-03-31T05:50:51.241Z,36.48
2017-03-31T05:51:51.492Z,36.38
2017-03-31T05:52:51.123Z,36.29
2017-03-31T05:53:51.058Z,36.38
2017-03-31T05:54:51.305Z,36.48
2017-03-31T05:55:51.245Z,36.19
2017-03-31T05:56:51.183Z,36.38
2017-03-31T05:57:51.119Z,36.38
2017-03-31T05:58:51.057Z,36.48
2017-03-31T05:59:50.995Z,36.38
2017-03-31T06:00:50.935Z,36.38
2017-03-31T06:01:50.875Z,36.38
2017-03-31T06:02:50.811Z,36.29
2017-03-31T06:03:51.118Z,36.48
2017-03-31T06:04:50.688Z,36.38
2017-03-31T06:05:50.990Z,36.29
2017-03-31T06:06:50.562Z,36.38
2017-03-31T06:07:50.501Z,36.29
2017-03-31T06:08:50.127Z,36.19
2017-03-31T06:09:50.376Z,36.38
2017-03-31T06:10:50.314Z,36.19
2017-03-31T06:11:50.255Z,36.38
2017-03-31T06:12:50.189Z,36.29
2017-03-31T06:13:50.127Z,36.19
2017-03-31T06:14:50.446Z,36.38
2017-03-31T06:15:50.003Z,36
2017-03-31T06:16:49.942Z,36.09
2017-03-31T06:17:49.880Z,36.19
2017-03-31T06:18:49.857Z,36.09
2017-03-31T06:19:49.754Z,36.29
2017-03-31T06:20:49.695Z,36.38
2017-03-31T06:21:49.326Z,36.19
2017-03-31T06:22:49.944Z,36
2017-03-31T06:23:49.509Z,36.09
2017-03-31T06:24:49.448Z,36.38
2017-03-31T06:25:49.383Z,36.19
2017-03-31T06:26:49.328Z,36.09
2017-03-31T06:27:49.259Z,36.19
2017-03-31T06:28:49.208Z,35.9
2017-03-31T06:29:49.141Z,36.19
2017-03-31T06:30:49.425Z,36.19
2017-03-31T06:31:49.031Z,36.09
2017-03-31T06:32:49.103Z,36.09
2017-03-31T06:33:48.889Z,36
2017-03-31T06:34:48.838Z,35.8
2017-03-31T06:35:48.767Z,36.09
2017-03-31T06:36:48.711Z,36
2017-03-31T06:37:48.329Z,36
2017-03-31T06:38:48.578Z,36.09
2017-03-31T06:39:48.215Z,36.09
2017-03-31T06:40:48.454Z,36.38
2017-03-31T06:41:48.431Z,36.19
2017-03-31T06:42:48.327Z,36.19
2017-03-31T06:43:48.268Z,35.8
2017-03-31T06:44:48.211Z,36.19
2017-03-31T06:45:48.143Z,36
2017-03-31T06:46:48.123Z,36.19
2017-03-31T06:47:48.411Z,36
2017-03-31T06:48:47.649Z,35.71
2017-03-31T06:49:47.895Z,36
2017-03-31T06:50:47.833Z,35.9
2017-03-31T06:51:47.770Z,35.9
2017-03-31T06:52:47.708Z,35.9
2017-03-31T06:53:47.648Z,35.9
2017-03-31T06:54:47.584Z,35.61
2017-03-31T06:55:47.525Z,36.09
2017-03-31T06:56:47.463Z,35.8
2017-03-31T06:57:47.398Z,35.9
2017-03-31T06:58:47.339Z,35.8
2017-03-31T06:59:47.276Z,36
2017-03-31T07:00:47.212Z,36
2017-03-31T07:01:47.151Z,35.9
2017-03-31T07:02:47.098Z,36.09
2017-03-31T07:03:47.031Z,35.8
2017-03-31T07:04:46.964Z,35.71
2017-03-31T07:05:46.904Z,36.09
2017-03-31T07:06:46.841Z,36
2017-03-31T07:07:46.794Z,36
2017-03-31T07:08:46.718Z,36.19
2017-03-31T07:09:46.657Z,36.19
2017-03-31T07:10:46.592Z,36.38
2017-03-31T07:11:46.533Z,36.57
2017-03-31T07:12:46.469Z,36.48
2017-03-31T07:13:46.631Z,36.87
2017-03-31T07:14:46.346Z,36.88
2017-03-31T07:15:45.973Z,36.96
2017-03-31T07:16:46.229Z,36.96
2017-03-31T07:17:46.161Z,37.25
2017-03-31T07:18:46.156Z,37.45
2017-03-31T07:19:46.039Z,37.37
2017-03-31T07:20:45.977Z,37.63
2017-03-31T07:21:45.604Z,37.46
2017-03-31T07:22:45.540Z,37.75
2017-03-31T07:23:45.792Z,38.04
2017-03-31T07:24:45.729Z,38.04
2017-03-31T07:25:45.665Z,38.04
2017-03-31T07:26:45.604Z,38.23
2017-03-31T07:27:45.233Z,38.14
2017-03-31T07:28:45.481Z,38.23
2017-03-31T07:29:45.425Z,38.43
2017-03-31T07:30:45.361Z,38.43
2017-03-31T07:31:45.301Z,38.23
2017-03-31T07:32:45.233Z,38.53
2017-03-31T07:33:45.171Z,38.71
2017-03-31T07:34:45.110Z,38.53
2017-03-31T07:35:45.049Z,38.81
2017-03-31T07:36:44.675Z,39.29
2017-03-31T07:37:44.926Z,38.53
2017-03-31T07:38:44.866Z,39.01
2017-03-31T07:39:44.803Z,38.81
2017-03-31T07:40:44.742Z,38.91
2017-03-31T07:41:44.679Z,39.59
2017-03-31T07:42:44.714Z,40.45
2017-03-31T07:43:44.621Z,40.36
2017-03-31T07:44:44.512Z,39.39
2017-03-31T07:45:44.640Z,39.87
2017-03-31T07:46:44.375Z,40.07
2017-03-31T07:47:44.308Z,39.69
2017-03-31T07:48:44.247Z,40.26
2017-03-31T07:49:44.184Z,40.17
2017-03-31T07:50:44.123Z,40.36
2017-03-31T07:51:44.060Z,39.69
2017-03-31T07:52:43.997Z,40.36
2017-03-31T07:53:43.936Z,40.55
2017-03-31T07:54:43.875Z,40.75
2017-03-31T07:55:43.834Z,40.84
2017-03-31T07:56:43.443Z,40.07
2017-03-31T07:57:43.688Z,40.07
2017-03-31T07:58:43.628Z,39.59
2017-03-31T07:59:43.566Z,40.36
2017-03-31T08:00:43.525Z,40.17
2017-03-31T08:01:43.133Z,40.17
2017-03-31T08:02:43.382Z,39.59
2017-03-31T08:03:43.320Z,39.39
2017-03-31T08:04:43.258Z,38.43
2017-03-31T08:05:43.196Z,38.14
2017-03-31T08:06:43.138Z,37.37
2017-03-31T08:07:43.098Z,37.08
2017-03-31T08:08:43.023Z,36.79
2017-03-31T08:09:42.948Z,36.69
2017-03-31T08:10:42.903Z,36.01
2017-03-31T08:11:42.842Z,35.63
2017-03-31T08:12:43.151Z,35.82
2017-03-31T08:13:42.722Z,35.63
2017-03-31T08:14:42.343Z,35.44
2017-03-31T08:15:42.594Z,35.34
2017-03-31T08:16:42.531Z,35.44
2017-03-31T08:17:42.145Z,35.53
2017-03-31T08:18:42.632Z,35.14
2017-03-31T08:19:42.031Z,35.53
2017-03-31T08:20:42.304Z,35.63
2017-03-31T08:21:42.223Z,35.53
2017-03-31T08:22:42.153Z,35.63
2017-03-31T08:23:41.774Z,34.95
2017-03-31T08:24:42.034Z,35.53
2017-03-31T08:25:41.983Z,34.76
2017-03-31T08:26:41.914Z,34.95
2017-03-31T08:27:41.837Z,34.66
2017-03-31T08:28:41.775Z,34.76
2017-03-31T08:29:41.405Z,34.76
2017-03-31T08:30:41.363Z,35.14
2017-03-31T08:31:41.298Z,34.86
2017-03-31T08:32:41.539Z,34.86
2017-03-31T08:33:41.470Z,34.76
2017-03-31T08:34:41.410Z,34.86
2017-03-31T08:35:41.356Z,34.66
2017-03-31T08:36:41.292Z,34.95
2017-03-31T08:37:41.232Z,34.86
2017-03-31T08:38:41.170Z,35.05
2017-03-31T08:39:41.098Z,35.34
2017-03-31T08:40:41.059Z,35.05
2017-03-31T08:41:40.997Z,35.14
2017-03-31T08:42:40.926Z,34.76
2017-03-31T08:43:40.860Z,35.53
2017-03-31T08:44:40.795Z,35.24
2017-03-31T08:45:40.730Z,35.63
2017-03-31T08:46:40.362Z,35.34
2017-03-31T08:47:40.609Z,35.53
2017-03-31T08:48:40.552Z,36.11
2017-03-31T08:49:40.492Z,35.72
2017-03-31T08:50:40.419Z,35.72
2017-03-31T08:51:40.359Z,35.82
2017-03-31T08:52:40.035Z,36.01
2017-03-31T08:53:40.233Z,35.82
2017-03-31T08:54:40.182Z,36.01
2017-03-31T08:55:39.823Z,35.92
2017-03-31T08:56:40.049Z,35.92
2017-03-31T08:57:39.984Z,35.82
2017-03-31T08:58:39.924Z,35.92
2017-03-31T08:59:39.552Z,36.11
2017-03-31T09:00:39.805Z,35.82
2017-03-31T09:01:39.738Z,35.82
2017-03-31T09:02:39.677Z,35.72
2017-03-31T09:03:39.615Z,35.72
2017-03-31T09:04:39.552Z,35.92
2017-03-31T09:05:39.493Z,36.11
2017-03-31T09:06:39.428Z,35.92
2017-03-31T09:07:39.058Z,35.82
2017-03-31T09:08:39.310Z,36.11
2017-03-31T09:09:39.247Z,35.82
2017-03-31T09:10:39.183Z,35.92
2017-03-31T09:11:39.124Z,36.01
2017-03-31T09:12:39.057Z,35.72
2017-03-31T09:13:38.996Z,35.82
2017-03-31T09:14:38.941Z,35.82
2017-03-31T09:15:38.873Z,36.11
2017-03-31T09:16:38.815Z,35.82
2017-03-31T09:17:38.750Z,35.92
2017-03-31T09:18:38.687Z,35.82
2017-03-31T09:19:38.625Z,35.72
2017-03-31T09:20:38.566Z,35.72
2017-03-31T09:21:38.507Z,35.72
2017-03-31T09:22:38.440Z,35.82
2017-03-31T09:23:38.380Z,35.53
2017-03-31T09:24:38.319Z,35.92
2017-03-31T09:25:38.260Z,35.82
2017-03-31T09:26:38.194Z,35.82
2017-03-31T09:27:38.133Z,35.72
2017-03-31T09:28:38.069Z,35.82
2017-03-31T09:29:38.032Z,35.72
2017-03-31T09:30:37.947Z,35.53
2017-03-31T09:31:37.887Z,35.72
2017-03-31T09:32:37.827Z,35.63
2017-03-31T09:33:37.764Z,35.63
2017-03-31T09:34:37.699Z,35.72
2017-03-31T09:35:37.640Z,35.53
2017-03-31T09:36:37.578Z,35.53
2017-03-31T09:37:37.515Z,35.44
2017-03-31T09:38:37.455Z,35.24
2017-03-31T09:39:37.394Z,35.24
2017-03-31T09:40:37.578Z,35.53
2017-03-31T09:41:37.269Z,35.63
2017-03-31T09:42:37.208Z,35.44
2017-03-31T09:43:37.146Z,35.34
2017-03-31T09:44:37.082Z,35.34
2017-03-31T09:45:37.032Z,35.53
2017-03-31T09:46:36.958Z,35.82
2017-03-31T09:47:36.897Z,35.92
2017-03-31T09:48:36.835Z,35.72
2017-03-31T09:49:37.144Z,36.11
2017-03-31T09:50:36.723Z,36.3
2017-03-31T09:51:36.651Z,36.01
2017-03-31T09:52:36.589Z,36.4
2017-03-31T09:53:36.525Z,36.5
2017-03-31T09:54:36.465Z,36.3
2017-03-31T09:55:36.405Z,36.5
2017-03-31T09:56:36.342Z,36.98
2017-03-31T09:57:36.283Z,37.08
2017-03-31T09:58:36.218Z,37.56
2017-03-31T09:59:36.156Z,37.27
2017-03-31T10:00:36.101Z,37.56
2017-03-31T10:01:36.042Z,37.75
2017-03-31T10:02:45.323Z,37.75
2017-03-31T10:03:35.909Z,37.75
2017-03-31T10:04:35.544Z,38.04
2017-03-31T10:05:35.785Z,38.23
2017-03-31T10:06:35.725Z,37.85
2017-03-31T10:07:35.678Z,38.14
2017-03-31T10:08:35.691Z,37.56
2017-03-31T10:09:35.575Z,37.56
2017-03-31T10:10:35.497Z,37.95
2017-03-31T10:11:35.426Z,38.14
2017-03-31T10:12:35.050Z,38.33
2017-03-31T10:13:35.293Z,38.23
2017-03-31T10:14:35.233Z,38.71
2017-03-31T10:15:35.173Z,38.53
2017-03-31T10:16:35.110Z,38.33
2017-03-31T10:17:35.048Z,38.16
2017-03-31T10:18:34.985Z,38.43
2017-03-31T10:19:34.937Z,38.54
2017-03-31T10:20:35.163Z,39.2
2017-03-31T10:21:34.804Z,38.91
2017-03-31T10:22:34.740Z,38.81
2017-03-31T10:23:34.677Z,38.71
2017-03-31T10:24:34.616Z,39.22
2017-03-31T10:25:34.557Z,38.64
2017-03-31T10:26:34.508Z,38.53
2017-03-31T10:27:34.434Z,37.96
2017-03-31T10:28:34.375Z,38.06
2017-03-31T10:29:34.313Z,37.56
2017-03-31T10:30:34.251Z,37.1
2017-03-31T10:31:34.184Z,37.29
2017-03-31T10:32:34.123Z,36.79
2017-03-31T10:33:34.061Z,36.88
2017-03-31T10:34:34.002Z,37
2017-03-31T10:35:33.945Z,36.42
2017-03-31T10:36:33.883Z,36.61
2017-03-31T10:37:33.824Z,36.59
2017-03-31T10:38:33.758Z,36.5
2017-03-31T10:39:33.695Z,36.3
2017-03-31T10:40:33.633Z,36.3
2017-03-31T10:41:33.573Z,36.3
2017-03-31T10:42:33.514Z,36.3
2017-03-31T10:43:33.446Z,36.3
2017-03-31T10:44:33.384Z,36.01
2017-03-31T10:45:33.327Z,36.11
2017-03-31T10:46:33.263Z,36.11
2017-03-31T10:47:33.201Z,36.01
2017-03-31T10:48:33.142Z,36.13
2017-03-31T10:49:33.080Z,36.3
2017-03-31T10:50:33.023Z,36.11
2017-03-31T10:51:32.956Z,35.82
2017-03-31T10:52:32.898Z,35.92
2017-03-31T10:53:32.835Z,35.82
2017-03-31T10:54:32.799Z,35.82
2017-03-31T10:55:32.717Z,35.82
2017-03-31T10:56:32.655Z,36.01
2017-03-31T10:57:32.585Z,35.82
2017-03-31T10:58:32.527Z,35.92
2017-03-31T10:59:32.152Z,36.01
2017-03-31T11:00:32.401Z,35.63
2017-03-31T11:01:32.562Z,35.72
2017-03-31T11:02:32.282Z,35.92
2017-03-31T11:03:32.217Z,35.82
2017-03-31T11:04:32.154Z,35.92
2017-03-31T11:05:32.099Z,35.63
2017-03-31T11:06:32.062Z,35.72
2017-03-31T11:07:31.974Z,35.92
2017-03-31T11:08:31.911Z,35.82
2017-03-31T11:09:31.849Z,35.53
2017-03-31T11:10:31.803Z,35.92
2017-03-31T11:11:37.996Z,35.53
2017-03-31T11:12:31.325Z,35.34
2017-03-31T11:13:31.569Z,35.24
2017-03-31T11:14:31.512Z,35.14
2017-03-31T11:15:31.135Z,35.24
2017-03-31T11:16:31.401Z,35.44
2017-03-31T11:17:31.021Z,35.72
2017-03-31T11:18:31.375Z,35.63
2017-03-31T11:19:31.415Z,35.63
2017-03-31T11:20:31.150Z,35.53
2017-03-31T11:21:31.077Z,35.53
2017-03-31T11:22:31.010Z,35.63
2017-03-31T11:23:30.952Z,35.72
2017-03-31T11:24:30.894Z,35.34
2017-03-31T11:25:30.843Z,35.63
2017-03-31T11:26:30.769Z,34.86
2017-03-31T11:27:30.701Z,34.66
2017-03-31T11:28:30.346Z,35.05
2017-03-31T11:29:30.585Z,35.24
2017-03-31T11:30:30.532Z,35.14
2017-03-31T11:31:30.466Z,34.86
2017-03-31T11:32:30.104Z,34.86
2017-03-31T11:33:30.341Z,34.76
2017-03-31T11:34:29.959Z,35.05
2017-03-31T11:35:30.169Z,34.56
2017-03-31T11:36:30.167Z,34.47
2017-03-31T11:37:29.779Z,34.76
2017-03-31T11:38:30.026Z,34.76
2017-03-31T11:39:29.971Z,34.56
2017-03-31T11:40:30.267Z,34.56
2017-03-31T11:41:29.868Z,34.56
2017-03-31T11:42:29.780Z,34.66
2017-03-31T11:43:29.723Z,34.66
2017-03-31T11:44:29.698Z,34.95
2017-03-31T11:45:29.842Z,34.66
2017-03-31T11:46:29.522Z,34.47
2017-03-31T11:47:29.473Z,34.47
2017-03-31T11:48:29.397Z,35.14
2017-03-31T11:49:29.352Z,34.76
2017-03-31T11:50:29.290Z,34.56
2017-03-31T11:51:29.233Z,34.76
2017-03-31T11:52:29.180Z,34.38
2017-03-31T11:53:29.104Z,34.38
2017-03-31T11:54:29.052Z,34.28
2017-03-31T11:55:28.971Z,34.18
2017-03-31T11:56:28.928Z,34.47
2017-03-31T11:57:28.561Z,34.38
2017-03-31T11:58:28.890Z,34.56
2017-03-31T11:59:28.417Z,34.76
2017-03-31T12:00:28.682Z,35.05
2017-03-31T12:01:28.297Z,34.66
2017-03-31T12:02:28.535Z,34.38
2017-03-31T12:03:28.482Z,34.38
2017-03-31T12:04:28.429Z,34.08
2017-03-31T12:05:28.434Z,34.18
2017-03-31T12:06:28.287Z,34.08
2017-03-31T12:07:28.243Z,34.18
2017-03-31T12:08:28.169Z,34.38
2017-03-31T12:09:28.116Z,34.47
2017-03-31T12:10:28.293Z,34.18
2017-03-31T12:11:27.984Z,33.89
2017-03-31T12:12:27.944Z,34.76
2017-03-31T12:13:27.866Z,34.28
2017-03-31T12:14:27.793Z,34.86
2017-03-31T12:15:27.751Z,34.38
2017-03-31T12:16:27.670Z,34.18
2017-03-31T12:17:27.306Z,34.56
2017-03-31T12:18:27.555Z,34.66
2017-03-31T12:19:27.484Z,34.28
2017-03-31T12:20:27.430Z,34.66
2017-03-31T12:21:27.385Z,33.98
2017-03-31T12:22:27.334Z,34.38
2017-03-31T12:23:27.263Z,33.8
2017-03-31T12:24:27.579Z,33.8
2017-03-31T12:25:27.121Z,33.5
2017-03-31T12:26:27.061Z,33.98
2017-03-31T12:27:26.992Z,33.6
2017-03-31T12:28:26.954Z,34.38
2017-03-31T12:29:26.875Z,34.38
2017-03-31T12:30:26.826Z,33.7
2017-03-31T12:31:26.830Z,33.98
2017-03-31T12:32:27.049Z,33.89
2017-03-31T12:33:26.621Z,33.8
2017-03-31T12:34:26.582Z,33.8
2017-03-31T12:35:26.508Z,33.7
2017-03-31T12:36:26.444Z,33.6
2017-03-31T12:37:26.375Z,33.89
2017-03-31T12:38:26.334Z,34.28
2017-03-31T12:39:26.274Z,33.98
2017-03-31T12:40:26.191Z,33.98
2017-03-31T12:41:26.135Z,33.8
2017-03-31T12:42:26.075Z,33.98
2017-03-31T12:43:26.010Z,33.89
2017-03-31T12:44:25.950Z,33.98
2017-03-31T12:45:25.893Z,33.89
2017-03-31T12:46:25.845Z,33.8
2017-03-31T12:47:25.765Z,33.5
2017-03-31T12:48:25.711Z,34.08
2017-03-31T12:49:25.646Z,33.5
2017-03-31T12:50:25.893Z,33.8
2017-03-31T12:51:25.225Z,33.31
2017-03-31T12:52:25.457Z,33.8
2017-03-31T12:53:25.394Z,33.4
2017-03-31T12:54:25.326Z,33.8
2017-03-31T12:55:25.422Z,33.89
2017-03-31T12:56:25.205Z,33.31